Time;durP1;ratioP1;P1;durP2;ratioP2;P2;SDS_P1;SDS_P2;PMS_P1;PMS_P2;Temp;Humidity;BMP_temperature;BMP_pressure;BME280_temperature;BME280_humidity;BME280_pressure;Samples;Min_cycle;Max_cycle;Signal;HPM_P1;HPM_P2
2023/04/03 04:02:07;;;;;;;0.32;0.32;;;0.20;99.90;;;;;;5145679;23;20606;-70
2023/04/03 04:04:33;;;;;;;1.90;1.85;;;0.20;99.90;;;;;;4920711;29;20214;-70
2023/04/03 04:07:00;;;;;;;0.20;0.20;;;0.20;99.90;;;;;;4914140;29;20223;-69
2023/04/03 04:09:27;;;;;;;0.47;0.47;;;0.20;99.90;;;;;;4917469;29;20277;-70
2023/04/03 04:11:54;;;;;;;2.13;1.42;;;0.20;99.90;;;;;;4914607;29;20245;-70
2023/04/03 04:14:21;;;;;;;2.85;1.05;;;0.10;99.90;;;;;;4906480;29;20595;-70
2023/04/03 04:16:48;;;;;;;0.22;0.22;;;0.10;99.90;;;;;;4886398;29;20206;-69
2023/04/03 04:19:16;;;;;;;0.20;0.20;;;0.10;99.90;;;;;;4894961;29;20238;-72
2023/04/03 04:21:43;;;;;;;3.13;2.88;;;0.10;99.90;;;;;;4901644;29;20225;-72
2023/04/03 04:24:10;;;;;;;0.50;0.50;;;0.10;99.90;;;;;;4888011;29;20211;-71
2023/04/03 04:26:36;;;;;;;0.35;0.35;;;0.10;99.90;;;;;;4884897;29;20232;-72
2023/04/03 04:29:03;;;;;;;2.13;1.20;;;0.10;99.90;;;;;;4900431;29;20224;-70
2023/04/03 04:31:30;;;;;;;0.68;0.68;;;0.10;99.90;;;;;;4903715;29;20227;-70
2023/04/03 04:33:57;;;;;;;2.35;2.35;;;0.10;99.90;;;;;;4879477;29;20207;-70
2023/04/03 04:36:25;;;;;;;0.30;0.30;;;0.10;99.90;;;;;;4885238;29;20300;-70
2023/04/03 04:38:52;;;;;;;0.88;0.82;;;0.00;99.90;;;;;;4893726;29;20220;-70
2023/04/03 04:41:20;;;;;;;0.30;0.30;;;0.10;99.90;;;;;;4879227;29;20228;-72
2023/04/03 04:43:47;;;;;;;0.10;0.10;;;0.10;99.90;;;;;;4889072;29;20235;-70
2023/04/03 04:46:14;;;;;;;0.20;0.20;;;0.10;99.90;;;;;;4904033;29;20230;-70
2023/04/03 04:48:41;;;;;;;3.80;0.55;;;0.10;99.90;;;;;;4899797;29;20199;-70
2023/04/03 04:51:08;;;;;;;2.22;2.08;;;0.00;99.90;;;;;;4899129;29;20231;-70
2023/04/03 04:53:36;;;;;;;0.70;0.63;;;0.10;99.90;;;;;;4901624;29;20282;-70
2023/04/03 04:56:03;;;;;;;0.45;0.45;;;0.00;99.90;;;;;;4889128;29;20222;-70
2023/04/03 04:58:30;;;;;;;0.50;0.50;;;0.10;99.90;;;;;;4880775;29;20214;-73
2023/04/03 05:01:00;;;;;;;2.55;0.75;;;0.10;99.90;;;;;;4901107;29;20724;-70
2023/04/03 05:03:27;;;;;;;0.10;0.10;;;0.10;99.90;;;;;;4902734;29;20230;-70
2023/04/03 05:05:53;;;;;;;0.82;0.60;;;0.10;99.90;;;;;;4892167;29;20215;-70
2023/04/03 05:08:21;;;;;;;0.30;0.30;;;0.10;99.90;;;;;;4881538;29;20236;-71
2023/04/03 05:10:50;;;;;;;0.50;0.50;;;0.10;99.90;;;;;;4890578;29;20530;-70
2023/04/03 05:13:17;;;;;;;2.65;1.85;;;0.20;99.90;;;;;;4909978;29;20624;-71
2023/04/03 05:15:44;;;;;;;1.10;0.73;;;0.30;99.90;;;;;;4906392;29;20354;-71
2023/04/03 05:18:10;;;;;;;2.85;2.58;;;0.30;99.90;;;;;;4894426;29;20210;-70
2023/04/03 05:20:37;;;;;;;1.17;1.17;;;0.30;99.90;;;;;;4896175;29;20319;-71
2023/04/03 05:23:04;;;;;;;0.73;0.73;;;0.40;99.90;;;;;;4904027;29;20636;-72
2023/04/03 05:25:31;;;;;;;0.70;0.70;;;0.40;99.90;;;;;;4910730;29;20209;-73
2023/04/03 05:27:59;;;;;;;0.77;0.77;;;0.60;99.90;;;;;;4905637;29;20218;-70
2023/04/03 05:30:26;;;;;;;1.40;1.40;;;0.80;99.90;;;;;;4891694;29;20294;-70
2023/04/03 05:32:53;;;;;;;3.40;0.68;;;0.90;99.90;;;;;;4911570;29;20327;-71
2023/04/03 05:35:19;;;;;;;8.88;1.05;;;1.00;99.90;;;;;;4905738;29;20203;-71
2023/04/03 05:37:46;;;;;;;0.38;0.30;;;1.10;99.90;;;;;;4905475;29;20218;-69
2023/04/03 05:40:13;;;;;;;2.85;1.30;;;1.30;99.90;;;;;;4911388;29;20215;-70
2023/04/03 05:42:40;;;;;;;0.40;0.40;;;1.60;99.90;;;;;;4911401;29;20214;-70
2023/04/03 05:45:09;;;;;;;1.40;1.40;;;1.60;99.90;;;;;;4887165;29;20219;-73
2023/04/03 05:47:38;;;;;;;0.70;0.70;;;1.50;99.90;;;;;;4895194;29;20222;-71
2023/04/03 05:50:06;;;;;;;0.20;0.20;;;1.40;99.90;;;;;;4904640;29;20711;-70
2023/04/03 05:52:37;;;;;;;2.40;0.90;;;1.30;99.90;;;;;;4909517;29;20711;-73
2023/04/03 05:55:04;;;;;;;0.10;0.10;;;1.20;99.90;;;;;;4908891;29;20639;-73
2023/04/03 05:57:31;;;;;;;0.75;0.75;;;1.20;99.90;;;;;;4899860;29;20218;-73
2023/04/03 05:59:58;;;;;;;0.82;0.38;;;1.20;99.90;;;;;;4894894;29;20223;-70
2023/04/03 06:02:26;;;;;;;0.30;0.30;;;1.20;99.90;;;;;;4888221;29;20257;-71
2023/04/03 06:04:53;;;;;;;0.85;0.85;;;1.20;99.90;;;;;;4890101;29;20218;-74
2023/04/03 06:07:22;;;;;;;0.45;0.35;;;1.20;99.90;;;;;;4887754;29;20223;-71
2023/04/03 06:09:49;;;;;;;0.68;0.50;;;1.20;99.90;;;;;;4888016;29;20297;-70
2023/04/03 06:12:18;;;;;;;0.55;0.55;;;1.20;99.90;;;;;;4901143;29;20285;-70
2023/04/03 06:14:45;;;;;;;0.30;0.30;;;1.30;99.90;;;;;;4904422;29;20222;-68
2023/04/03 06:17:13;;;;;;;0.85;0.85;;;1.30;99.90;;;;;;4902462;29;20419;-69
2023/04/03 06:19:41;;;;;;;0.80;0.80;;;1.40;99.90;;;;;;4905771;29;20238;-70
2023/04/03 06:22:08;;;;;;;0.68;0.68;;;1.40;99.90;;;;;;4899330;29;20238;-70
2023/04/03 06:24:35;;;;;;;0.73;0.73;;;1.50;99.90;;;;;;4896307;29;20581;-69
2023/04/03 06:27:02;;;;;;;0.73;0.70;;;1.50;99.90;;;;;;4901083;29;20247;-71
2023/04/03 06:29:29;;;;;;;1.85;1.75;;;1.60;99.90;;;;;;4883613;29;20238;-70
2023/04/03 06:31:55;;;;;;;0.40;0.40;;;1.60;99.90;;;;;;4903434;29;20336;-70
2023/04/03 06:34:22;;;;;;;0.30;0.30;;;1.70;99.90;;;;;;4899871;29;20206;-71
2023/04/03 06:36:50;;;;;;;0.20;0.20;;;1.80;99.90;;;;;;4914100;29;20616;-70
2023/04/03 06:39:20;;;;;;;0.30;0.30;;;1.80;99.90;;;;;;4899041;29;20637;-70
2023/04/03 06:41:47;;;;;;;0.75;0.75;;;1.90;99.90;;;;;;4903922;29;20227;-70
2023/04/03 06:44:15;;;;;;;0.47;0.47;;;1.90;99.90;;;;;;4890200;29;20259;-70
2023/04/03 06:46:43;;;;;;;1.20;0.30;;;2.00;99.90;;;;;;4898571;29;20218;-71
2023/04/03 06:49:10;;;;;;;2.38;0.95;;;2.10;99.90;;;;;;4888085;29;20208;-71
2023/04/03 06:51:37;;;;;;;1.10;0.50;;;2.10;99.90;;;;;;4893888;29;20612;-70
2023/04/03 06:54:06;;;;;;;0.50;0.50;;;2.20;99.90;;;;;;4885105;29;20204;-70
2023/04/03 06:56:33;;;;;;;1.48;0.75;;;2.30;99.90;;;;;;4895913;29;20241;-71
2023/04/03 06:59:00;;;;;;;0.80;0.80;;;2.30;99.90;;;;;;4899196;29;20208;-70
2023/04/03 07:01:29;;;;;;;0.20;0.20;;;2.40;99.90;;;;;;4878711;29;1027521;-70
2023/04/03 07:03:57;;;;;;;0.38;0.38;;;2.50;99.90;;;;;;4878290;29;20216;-70
2023/04/03 07:06:26;;;;;;;0.90;0.20;;;2.50;99.90;;;;;;4903897;29;20202;-70
2023/04/03 07:08:53;;;;;;;0.63;0.40;;;2.60;99.90;;;;;;4893824;29;20266;-72
2023/04/03 07:11:21;;;;;;;4.82;0.88;;;2.70;99.90;;;;;;4881247;29;21280;-70
2023/04/03 07:13:48;;;;;;;0.50;0.50;;;2.80;99.90;;;;;;4894672;29;20215;-70
2023/04/03 07:16:14;;;;;;;0.30;0.30;;;2.80;99.90;;;;;;4904419;29;20239;-70
2023/04/03 07:18:41;;;;;;;0.55;0.40;;;2.90;99.90;;;;;;4914374;29;20233;-71
2023/04/03 07:21:08;;;;;;;0.65;0.65;;;3.00;99.90;;;;;;4890369;29;20265;-72
2023/04/03 07:23:35;;;;;;;0.20;0.20;;;3.00;99.90;;;;;;4891016;29;20211;-71
2023/04/03 07:26:02;;;;;;;0.10;0.10;;;3.10;99.90;;;;;;4887538;29;20203;-71
2023/04/03 07:28:30;;;;;;;0.57;0.50;;;3.20;99.90;;;;;;4895657;29;20218;-70
2023/04/03 07:31:01;;;;;;;0.30;0.30;;;3.30;99.90;;;;;;4890003;29;20232;-70
2023/04/03 07:33:28;;;;;;;5.57;1.13;;;3.40;99.90;;;;;;4904028;29;20203;-70
2023/04/03 07:35:55;;;;;;;0.98;0.95;;;3.50;99.90;;;;;;4888105;29;20227;-71
2023/04/03 07:38:22;;;;;;;0.50;0.40;;;3.50;99.90;;;;;;4901385;29;20207;-71
2023/04/03 07:40:52;;;;;;;1.20;0.90;;;3.60;99.90;;;;;;4904313;29;20293;-70
2023/04/03 07:43:20;;;;;;;2.47;0.68;;;3.70;99.90;;;;;;4899455;29;20206;-69
2023/04/03 07:45:50;;;;;;;0.40;0.40;;;3.70;99.90;;;;;;4895474;29;20348;-69
2023/04/03 07:48:19;;;;;;;0.73;0.73;;;3.80;99.90;;;;;;4903167;29;20230;-68
2023/04/03 07:50:46;;;;;;;0.20;0.20;;;3.80;99.90;;;;;;4882511;29;20231;-70
2023/04/03 07:53:13;;;;;;;1.20;0.65;;;4.00;99.90;;;;;;4884706;29;20287;-69
2023/04/03 07:55:43;;;;;;;0.40;0.40;;;4.00;99.90;;;;;;4897285;29;20331;-71
2023/04/03 07:58:10;;;;;;;1.15;1.15;;;4.10;99.90;;;;;;4892712;29;20212;-69
2023/04/03 08:00:37;;;;;;;0.45;0.45;;;4.10;99.90;;;;;;4904500;29;20664;-69
2023/04/03 08:03:06;;;;;;;0.20;0.20;;;4.10;99.90;;;;;;4906810;29;20307;-71
2023/04/03 08:05:36;;;;;;;0.35;0.30;;;4.20;99.90;;;;;;4901192;29;20574;-69
2023/04/03 08:08:03;;;;;;;0.30;0.30;;;4.20;99.90;;;;;;4895550;29;20231;-69
2023/04/03 08:10:31;;;;;;;0.30;0.30;;;4.30;99.90;;;;;;4890074;29;20211;-69
2023/04/03 08:12:57;;;;;;;0.30;0.30;;;4.40;99.90;;;;;;4884522;29;20625;-69
2023/04/03 08:15:24;;;;;;;0.25;0.20;;;4.40;99.90;;;;;;4885150;29;20207;-69
2023/04/03 08:17:51;;;;;;;0.20;0.20;;;4.50;99.90;;;;;;4886668;29;20218;-70
2023/04/03 08:20:20;;;;;;;0.63;0.40;;;4.50;99.90;;;;;;4897608;29;20225;-68
2023/04/03 08:22:47;;;;;;;0.10;0.10;;;4.60;99.90;;;;;;4913981;29;20619;-70
2023/04/03 08:25:14;;;;;;;1.58;0.30;;;4.60;99.90;;;;;;4896269;29;20211;-69
2023/04/03 08:27:41;;;;;;;0.17;0.17;;;4.70;99.90;;;;;;4894462;29;20775;-70
2023/04/03 08:30:09;;;;;;;3.53;1.60;;;4.80;99.90;;;;;;4900559;29;20211;-68
2023/04/03 08:32:36;;;;;;;0.20;0.20;;;4.80;99.90;;;;;;4913850;29;20230;-68
2023/04/03 08:35:03;;;;;;;2.80;0.47;;;4.90;99.90;;;;;;4896929;29;20257;-68
2023/04/03 08:37:31;;;;;;;0.50;0.50;;;5.00;99.90;;;;;;4889422;29;20227;-70
2023/04/03 08:39:59;;;;;;;0.10;0.10;;;5.10;99.90;;;;;;4893540;29;20236;-69
2023/04/03 08:42:41;;;;;;;0.20;0.20;;;5.10;99.90;;;;;;4896883;29;20231;-69
2023/04/03 08:45:13;;;;;;;0.10;0.10;;;5.20;99.90;;;;;;4913121;29;20206;-70
2023/04/03 08:47:45;;;;;;;0.93;0.93;;;5.20;99.90;;;;;;4898153;29;20207;-69
2023/04/03 08:50:16;;;;;;;0.85;0.43;;;5.30;99.90;;;;;;4879871;29;20231;-69
2023/04/03 08:52:48;;;;;;;0.20;0.20;;;5.30;99.90;;;;;;4883548;29;20219;-69
2023/04/03 08:55:24;;;;;;;0.10;0.10;;;5.30;99.90;;;;;;4902991;29;20561;-69
2023/04/03 08:57:58;;;;;;;0.10;0.10;;;5.50;99.90;;;;;;4901028;29;20316;-69
2023/04/03 09:00:28;;;;;;;0.57;0.55;;;5.50;99.90;;;;;;4904543;29;20233;-68
2023/04/03 09:02:56;;;;;;;0.50;0.30;;;5.60;99.90;;;;;;4903123;29;20332;-68
2023/04/03 09:05:38;;;;;;;0.20;0.20;;;5.60;99.90;;;;;;4909071;29;20285;-68
2023/04/03 09:08:12;;;;;;;8.18;0.55;;;5.70;99.90;;;;;;4891476;29;20239;-68
2023/04/03 09:10:41;;;;;;;0.22;0.22;;;5.80;99.90;;;;;;4905834;29;20237;-68
2023/04/03 09:13:21;;;;;;;0.50;0.50;;;5.80;99.90;;;;;;4902528;29;20206;-67
2023/04/03 09:15:48;;;;;;;0.10;0.10;;;5.90;99.90;;;;;;4894502;29;20794;-69
2023/04/03 09:18:20;;;;;;;0.70;0.70;;;6.00;99.90;;;;;;4900663;29;20214;-70
2023/04/03 09:20:54;;;;;;;1.05;0.20;;;6.00;99.90;;;;;;4893122;29;20227;-68
2023/04/03 09:23:29;;;;;;;0.20;0.20;;;6.00;99.90;;;;;;4887562;29;20217;-68
2023/04/03 09:26:03;;;;;;;0.65;0.40;;;5.90;99.90;;;;;;4899785;29;20325;-68
2023/04/03 09:28:32;;;;;;;0.10;0.10;;;6.00;99.90;;;;;;4903761;29;20222;-68
2023/04/03 09:31:01;;;;;;;1.05;0.32;;;6.10;99.90;;;;;;4906837;29;20241;-68
2023/04/03 09:33:29;;;;;;;0.10;0.10;;;6.20;99.90;;;;;;4908442;29;20256;-69
2023/04/03 09:35:56;;;;;;;0.40;0.40;;;6.20;99.90;;;;;;4907226;29;20218;-69
2023/04/03 09:38:25;;;;;;;0.30;0.30;;;6.20;99.90;;;;;;4900323;29;20204;-68
2023/04/03 09:41:06;;;;;;;6.38;0.55;;;6.20;99.90;;;;;;4901997;29;20638;-68
2023/04/03 09:43:34;;;;;;;1.95;0.60;;;6.30;99.90;;;;;;4881097;29;20212;-68
2023/04/03 09:46:25;;;;;;;0.10;0.10;;;6.30;99.90;;;;;;4902558;29;20303;-68
2023/04/03 09:48:55;;;;;;;0.43;0.43;;;6.50;99.90;;;;;;4891472;29;21325;-68
2023/04/03 09:51:27;;;;;;;0.30;0.30;;;6.60;99.90;;;;;;4904212;29;20250;-68
2023/04/03 09:53:56;;;;;;;0.30;0.30;;;6.50;99.90;;;;;;4897720;29;20614;-67
2023/04/03 09:56:26;;;;;;;0.50;0.50;;;6.60;99.90;;;;;;4907469;29;20218;-68
2023/04/03 09:59:14;;;;;;;0.20;0.20;;;6.60;99.90;;;;;;4917032;29;20294;-68
2023/04/03 10:01:44;;;;;;;0.20;0.20;;;6.60;99.90;;;;;;4911766;29;20235;-68
2023/04/03 10:04:13;;;;;;;0.20;0.20;;;6.70;99.90;;;;;;4899903;29;20208;-68
2023/04/03 10:06:46;;;;;;;4.07;1.23;;;6.80;99.90;;;;;;4900586;29;20212;-68
2023/04/03 10:09:21;;;;;;;0.47;0.40;;;6.70;99.90;;;;;;4894792;29;20227;-68
2023/04/03 10:12:05;;;;;;;3.80;1.55;;;6.70;99.90;;;;;;4911127;29;20222;-68
2023/04/03 10:14:33;;;;;;;0.10;0.10;;;6.70;99.90;;;;;;4905857;29;20222;-68
2023/04/03 10:17:11;;;;;;;1.10;1.10;;;6.60;99.90;;;;;;4887077;29;20216;-68
2023/04/03 10:19:42;;;;;;;0.20;0.20;;;6.70;99.90;;;;;;4911977;29;20198;-68
2023/04/03 10:22:19;;;;;;;0.65;0.65;;;6.80;99.90;;;;;;4877737;29;20748;-68
2023/04/03 10:24:56;;;;;;;0.20;0.20;;;6.90;99.90;;;;;;4880548;29;20299;-69
2023/04/03 10:27:34;;;;;;;0.10;0.10;;;7.10;99.90;;;;;;4881307;29;20231;-66
2023/04/03 10:30:08;;;;;;;0.30;0.30;;;7.30;99.90;;;;;;4891759;29;20782;-68
2023/04/03 10:32:47;;;;;;;0.30;0.30;;;7.40;99.90;;;;;;4889716;29;20251;-67
2023/04/03 10:35:22;;;;;;;0.30;0.30;;;7.40;99.90;;;;;;4913730;29;20215;-68
2023/04/03 10:38:01;;;;;;;0.10;0.10;;;7.20;99.90;;;;;;4893774;29;20553;-68
2023/04/03 10:40:40;;;;;;;0.10;0.10;;;7.00;99.90;;;;;;4889739;29;20212;-68
2023/04/03 10:43:11;;;;;;;0.20;0.20;;;6.90;99.90;;;;;;4911586;29;20221;-68
2023/04/03 10:45:51;;;;;;;0.10;0.10;;;6.90;99.90;;;;;;4896978;29;20218;-68
2023/04/03 10:48:34;;;;;;;0.70;0.70;;;7.00;99.90;;;;;;4908515;29;20212;-68
2023/04/03 10:51:11;;;;;;;0.10;0.10;;;7.10;99.90;;;;;;4889426;29;20295;-68
2023/04/03 10:53:42;;;;;;;0.35;0.35;;;7.10;99.90;;;;;;4890695;29;20218;-67
2023/04/03 10:56:16;;;;;;;0.20;0.20;;;7.30;99.90;;;;;;4888485;29;20220;-69
2023/04/03 10:58:46;;;;;;;0.40;0.40;;;7.60;99.90;;;;;;4894384;29;20207;-68
2023/04/03 11:01:17;;;;;;;0.65;0.65;;;7.80;99.90;;;;;;4904493;29;20250;-68
2023/04/03 11:03:48;;;;;;;0.10;0.10;;;8.00;99.90;;;;;;4894809;29;20215;-68
2023/04/03 11:06:17;;;;;;;0.50;0.30;;;8.10;99.90;;;;;;4908603;29;20571;-67
2023/04/03 11:08:51;;;;;;;3.08;0.73;;;8.20;99.90;;;;;;4901071;29;20228;-68
2023/04/03 11:11:25;;;;;;;0.15;0.15;;;8.00;99.90;;;;;;4915081;29;20223;-68
2023/04/03 11:13:56;;;;;;;0.30;0.30;;;7.80;99.90;;;;;;4901889;29;20710;-67
2023/04/03 11:16:26;;;;;;;0.52;0.45;;;7.60;99.90;;;;;;4898510;29;20310;-68
2023/04/03 11:19:00;;;;;;;0.20;0.20;;;7.60;99.90;;;;;;4904359;29;20716;-68
2023/04/03 11:21:30;;;;;;;1.00;0.40;;;7.60;99.90;;;;;;4901667;29;20305;-68
2023/04/03 11:23:59;;;;;;;0.30;0.30;;;7.50;99.90;;;;;;4906469;29;20219;-68
2023/04/03 11:26:32;;;;;;;0.20;0.20;;;7.50;99.90;;;;;;4901765;29;20613;-68
2023/04/03 11:29:02;;;;;;;0.57;0.40;;;7.50;99.90;;;;;;4893853;29;20234;-68
2023/04/03 11:31:50;;;;;;;0.17;0.17;;;7.50;99.90;;;;;;4890128;29;20227;-67
2023/04/03 11:34:31;;;;;;;0.30;0.20;;;7.50;99.90;;;;;;4902146;29;20692;-69
2023/04/03 11:37:01;;;;;;;0.20;0.20;;;7.50;99.90;;;;;;4914866;29;20202;-68
2023/04/03 11:39:31;;;;;;;0.17;0.17;;;7.60;99.90;;;;;;4880063;29;20204;-68
2023/04/03 11:42:15;;;;;;;0.30;0.30;;;7.70;99.90;;;;;;4902908;29;20356;-69
2023/04/03 11:44:42;;;;;;;0.40;0.40;;;7.80;99.90;;;;;;4892612;29;20208;-68
2023/04/03 11:47:11;;;;;;;0.10;0.10;;;7.60;99.90;;;;;;4884823;29;20240;-68
2023/04/03 11:50:00;;;;;;;0.20;0.20;;;7.60;99.90;;;;;;4894865;29;20226;-68
2023/04/03 11:52:59;;;;;;;0.28;0.25;;;7.40;99.90;;;;;;4901837;29;20237;-67
2023/04/03 11:55:43;;;;;;;0.40;0.40;;;7.30;99.90;;;;;;4913792;29;20297;-67
2023/04/03 11:58:17;;;;;;;0.20;0.20;;;7.50;99.90;;;;;;4886821;29;20208;-67
2023/04/03 12:00:59;;;;;;;0.35;0.35;;;7.70;99.90;;;;;;4908114;29;20237;-67
2023/04/03 12:04:04;;;;;;;0.88;0.88;;;8.00;99.90;;;;;;4895522;29;20258;-69
2023/04/03 12:07:14;;;;;;;0.57;0.57;;;8.10;99.30;;;;;;4906710;29;20609;-67
2023/04/03 12:10:02;;;;;;;0.30;0.30;;;8.30;99.90;;;;;;4880245;29;20225;-69
2023/04/03 12:12:35;;;;;;;0.45;0.45;;;8.30;99.50;;;;;;4884720;29;20325;-68
2023/04/03 12:15:27;;;;;;;0.40;0.40;;;8.30;99.90;;;;;;4886970;29;20235;-68
2023/04/03 12:17:54;;;;;;;0.20;0.20;;;8.20;99.40;;;;;;4898631;29;20549;-68
2023/04/03 12:20:56;;;;;;;0.20;0.20;;;8.10;98.90;;;;;;4898970;29;20211;-68
2023/04/03 12:23:31;;;;;;;1.75;0.50;;;7.90;98.30;;;;;;4897367;29;20219;-68
2023/04/03 12:26:21;;;;;;;0.40;0.30;;;7.80;98.40;;;;;;4901508;29;20292;-68
2023/04/03 12:28:50;;;;;;;0.45;0.45;;;7.90;98.80;;;;;;4892273;29;20259;-67
2023/04/03 12:31:18;;;;;;;0.60;0.60;;;8.00;99.30;;;;;;4884810;29;20302;-67
2023/04/03 12:34:01;;;;;;;0.20;0.20;;;8.10;99.40;;;;;;4893399;29;20689;-67
2023/04/03 12:36:39;;;;;;;0.45;0.45;;;8.10;99.90;;;;;;4883840;29;20303;-67
2023/04/03 12:39:17;;;;;;;0.43;0.43;;;8.00;99.90;;;;;;4889219;29;20294;-67
2023/04/03 12:41:51;;;;;;;0.43;0.38;;;7.80;99.90;;;;;;4882009;29;20224;-67
2023/04/03 12:44:45;;;;;;;0.65;0.65;;;7.80;99.90;;;;;;4879281;29;20252;-67
2023/04/03 12:47:25;;;;;;;0.20;0.20;;;7.80;99.90;;;;;;4888698;29;20215;-67
2023/04/03 12:49:52;;;;;;;0.20;0.20;;;7.70;99.90;;;;;;4897555;29;20211;-68
2023/04/03 12:52:30;;;;;;;0.20;0.20;;;7.70;99.90;;;;;;4892440;29;20230;-68
2023/04/03 12:54:58;;;;;;;0.90;0.90;;;7.70;99.90;;;;;;4893052;29;20208;-67
2023/04/03 12:57:27;;;;;;;0.25;0.25;;;7.70;99.90;;;;;;4897929;29;20676;-67
2023/04/03 12:59:54;;;;;;;1.95;0.82;;;7.80;99.90;;;;;;4898524;29;20693;-67
2023/04/03 13:02:25;;;;;;;0.20;0.20;;;7.80;99.60;;;;;;4889437;29;20788;-67
2023/04/03 13:04:53;;;;;;;0.30;0.30;;;7.60;99.20;;;;;;4899797;29;20904;-68
2023/04/03 13:07:23;;;;;;;1.30;0.45;;;7.40;99.20;;;;;;4892559;29;20212;-70
2023/04/03 13:09:57;;;;;;;2.92;1.00;;;7.40;99.00;;;;;;4886677;29;20615;-68
2023/04/03 13:12:24;;;;;;;0.30;0.30;;;7.50;99.40;;;;;;4891205;29;20230;-67
2023/04/03 13:14:55;;;;;;;0.35;0.25;;;7.70;98.90;;;;;;4899080;29;20258;-68
2023/04/03 13:17:24;;;;;;;0.20;0.20;;;7.90;98.70;;;;;;4893644;29;20207;-68
2023/04/03 13:19:51;;;;;;;0.77;0.77;;;8.20;98.00;;;;;;4883349;29;20217;-67
2023/04/03 13:22:28;;;;;;;0.68;0.68;;;8.40;97.50;;;;;;4884173;29;20228;-68
2023/04/03 13:24:56;;;;;;;0.30;0.30;;;8.40;97.90;;;;;;4886404;29;20648;-67
2023/04/03 13:27:23;;;;;;;1.27;0.47;;;8.30;98.70;;;;;;4884694;29;20219;-67
2023/04/03 13:29:52;;;;;;;0.20;0.20;;;8.30;98.80;;;;;;4894553;29;20247;-67
2023/04/03 13:32:23;;;;;;;1.75;0.30;;;8.10;98.70;;;;;;4894035;29;20238;-67
2023/04/03 13:34:51;;;;;;;0.30;0.30;;;7.90;99.20;;;;;;4892616;29;20214;-67
2023/04/03 13:37:24;;;;;;;0.40;0.40;;;7.70;99.20;;;;;;4913465;29;20206;-67
2023/04/03 13:40:04;;;;;;;0.30;0.30;;;7.50;98.90;;;;;;4913429;29;20206;-68
2023/04/03 13:42:36;;;;;;;0.10;0.10;;;7.50;98.90;;;;;;4879049;29;20236;-67
2023/04/03 13:45:20;;;;;;;0.10;0.10;;;7.60;99.50;;;;;;4893020;29;20199;-67
2023/04/03 13:47:48;;;;;;;0.85;0.85;;;7.80;98.90;;;;;;4912057;29;20627;-67
2023/04/03 13:50:19;;;;;;;0.20;0.20;;;8.00;98.70;;;;;;4916265;29;20226;-67
2023/04/03 13:52:48;;;;;;;0.40;0.40;;;8.00;97.00;;;;;;4913051;29;20258;-67
2023/04/03 13:55:23;;;;;;;0.50;0.50;;;8.10;97.60;;;;;;4900767;29;20217;-68
2023/04/03 13:57:53;;;;;;;0.20;0.20;;;8.30;97.90;;;;;;4916527;29;20198;-68
2023/04/03 14:00:26;;;;;;;0.82;0.50;;;8.30;97.50;;;;;;4916368;29;20206;-67
2023/04/03 14:02:57;;;;;;;0.40;0.40;;;8.00;96.60;;;;;;4896623;29;20223;-67
2023/04/03 14:05:26;;;;;;;0.20;0.20;;;7.70;96.00;;;;;;4878429;29;20211;-67
2023/04/03 14:07:53;;;;;;;0.10;0.10;;;7.50;96.80;;;;;;4905755;29;20231;-67
2023/04/03 14:10:21;;;;;;;0.43;0.43;;;7.50;97.50;;;;;;4896248;29;20234;-67
2023/04/03 14:12:48;;;;;;;0.82;0.77;;;7.60;98.10;;;;;;4911888;29;20210;-67
2023/04/03 14:15:19;;;;;;;0.17;0.17;;;7.70;98.80;;;;;;4903691;29;20219;-67
2023/04/03 14:17:46;;;;;;;0.10;0.10;;;7.70;97.20;;;;;;4912887;29;20206;-67
2023/04/03 14:20:16;;;;;;;0.73;0.70;;;7.60;97.70;;;;;;4896017;29;20226;-68
2023/04/03 14:22:45;;;;;;;0.60;0.40;;;7.60;98.80;;;;;;4914372;29;20230;-68
2023/04/03 14:25:12;;;;;;;0.20;0.20;;;7.70;98.70;;;;;;4906792;29;20365;-67
2023/04/03 14:27:41;;;;;;;4.32;0.70;;;7.80;98.40;;;;;;4918983;29;20206;-68
2023/04/03 14:30:13;;;;;;;0.20;0.20;;;7.90;98.40;;;;;;4919997;29;20234;-68
2023/04/03 14:32:40;;;;;;;0.20;0.20;;;8.00;97.30;;;;;;4911160;29;20237;-68
2023/04/03 14:35:07;;;;;;;0.20;0.20;;;8.10;96.20;;;;;;4907108;29;20296;-68
2023/04/03 14:37:35;;;;;;;0.10;0.10;;;7.90;96.90;;;;;;4914080;29;20235;-68
2023/04/03 14:40:05;;;;;;;1.90;0.95;;;7.70;96.80;;;;;;4899275;29;20614;-68
2023/04/03 14:42:34;;;;;;;0.70;0.70;;;7.50;97.10;;;;;;4900707;29;20349;-68
2023/04/03 14:45:10;;;;;;;0.63;0.63;;;7.40;97.60;;;;;;4904630;29;20213;-67
2023/04/03 14:47:41;;;;;;;0.40;0.40;;;7.40;97.30;;;;;;4893536;29;20915;-67
2023/04/03 14:50:13;;;;;;;0.10;0.10;;;7.40;96.70;;;;;;4895256;29;20227;-68
2023/04/03 14:52:40;;;;;;;0.20;0.20;;;7.40;96.90;;;;;;4879537;29;20275;-67
2023/04/03 14:55:09;;;;;;;0.30;0.30;;;7.50;97.40;;;;;;4887893;29;20220;-67
2023/04/03 14:57:36;;;;;;;0.20;0.20;;;7.60;97.40;;;;;;4891502;29;20211;-67
2023/04/03 15:00:04;;;;;;;0.20;0.20;;;7.60;97.30;;;;;;4896918;29;20210;-70
2023/04/03 15:02:33;;;;;;;0.20;0.20;;;7.60;97.40;;;;;;4915337;29;20237;-70
2023/04/03 15:05:02;;;;;;;0.25;0.25;;;7.50;97.80;;;;;;4897246;29;20226;-69
2023/04/03 15:07:33;;;;;;;0.20;0.20;;;7.50;97.90;;;;;;4915725;29;20210;-69
2023/04/03 15:10:02;;;;;;;0.98;0.98;;;7.40;97.60;;;;;;4898146;29;20235;-70
2023/04/03 15:12:30;;;;;;;0.65;0.65;;;7.40;97.60;;;;;;4911941;29;20235;-70
2023/04/03 15:14:56;;;;;;;0.20;0.20;;;7.30;97.50;;;;;;4896666;29;20290;-69
2023/04/03 15:17:24;;;;;;;0.10;0.10;;;7.30;97.10;;;;;;4915764;29;20221;-69
2023/04/03 15:19:51;;;;;;;0.68;0.68;;;7.40;97.30;;;;;;4907840;29;20200;-71
2023/04/03 15:22:19;;;;;;;0.10;0.10;;;7.30;96.30;;;;;;4878209;29;20228;-70
2023/04/03 15:24:47;;;;;;;0.20;0.20;;;7.30;96.20;;;;;;4886457;29;20203;-67
2023/04/03 15:27:15;;;;;;;0.25;0.22;;;7.20;95.60;;;;;;4898545;29;20214;-67
2023/04/03 15:29:44;;;;;;;0.10;0.10;;;7.30;96.10;;;;;;4910702;29;20210;-67
2023/04/03 15:32:11;;;;;;;0.10;0.10;;;7.20;96.30;;;;;;4913343;29;20266;-68
2023/04/03 15:34:38;;;;;;;0.10;0.10;;;7.30;96.20;;;;;;4897099;29;20226;-68
2023/04/03 15:37:05;;;;;;;0.38;0.38;;;7.30;96.10;;;;;;4915208;29;20230;-68
2023/04/03 15:39:32;;;;;;;0.35;0.35;;;7.30;95.50;;;;;;4881337;29;20664;-67
2023/04/03 15:42:05;;;;;;;0.30;0.30;;;7.20;95.80;;;;;;4900075;29;20235;-68
2023/04/03 15:44:33;;;;;;;0.52;0.52;;;7.20;94.70;;;;;;4898135;29;20691;-68
2023/04/03 15:47:02;;;;;;;0.20;0.20;;;7.10;94.60;;;;;;4909723;29;20508;-68
2023/04/03 15:49:29;;;;;;;0.30;0.30;;;7.20;95.40;;;;;;4907160;29;20207;-68
2023/04/03 15:51:55;;;;;;;0.25;0.25;;;7.20;94.80;;;;;;4885590;29;20232;-68
2023/04/03 15:54:23;;;;;;;1.52;1.52;;;7.10;95.10;;;;;;4887735;29;20214;-68
2023/04/03 15:56:50;;;;;;;0.20;0.20;;;7.00;96.10;;;;;;4903085;29;20687;-68
2023/04/03 15:59:17;;;;;;;0.20;0.20;;;7.00;96.10;;;;;;4899357;29;20668;-66
2023/04/03 16:01:44;;;;;;;0.10;0.10;;;6.90;95.60;;;;;;4914191;29;20714;-66
2023/04/03 16:04:12;;;;;;;0.40;0.40;;;6.90;95.40;;;;;;4900657;29;20221;-67
2023/04/03 16:06:39;;;;;;;0.60;0.60;;;6.90;95.40;;;;;;4894216;29;20215;-68
2023/04/03 16:09:08;;;;;;;0.47;0.47;;;6.80;94.70;;;;;;4897061;29;20235;-67
2023/04/03 16:11:35;;;;;;;0.10;0.10;;;6.80;95.20;;;;;;4896452;29;20235;-67
2023/04/03 16:14:02;;;;;;;0.20;0.20;;;6.80;96.20;;;;;;4882316;29;20240;-67
2023/04/03 16:16:28;;;;;;;7.43;0.55;;;6.80;96.70;;;;;;4893413;29;20215;-67
2023/04/03 16:18:56;;;;;;;0.40;0.40;;;6.80;97.80;;;;;;4893788;29;20553;-68
2023/04/03 16:21:24;;;;;;;0.20;0.20;;;6.80;97.40;;;;;;4885094;29;20715;-68
2023/04/03 16:23:51;;;;;;;0.20;0.20;;;6.70;97.00;;;;;;4886042;29;20231;-68
2023/04/03 16:26:18;;;;;;;3.90;0.57;;;6.70;96.90;;;;;;4901085;29;20551;-67
2023/04/03 16:28:45;;;;;;;1.00;0.40;;;6.70;97.50;;;;;;4910098;29;20213;-67
2023/04/03 16:31:12;;;;;;;0.30;0.30;;;6.60;97.80;;;;;;4897258;29;20691;-66
2023/04/03 16:33:39;;;;;;;0.40;0.40;;;6.60;98.00;;;;;;4890021;29;20207;-67
2023/04/03 16:36:06;;;;;;;0.22;0.22;;;6.50;98.10;;;;;;4887672;29;20216;-67
2023/04/03 16:38:34;;;;;;;1.10;1.10;;;6.50;98.40;;;;;;4882322;29;20311;-67
2023/04/03 16:41:04;;;;;;;0.90;0.65;;;6.40;98.00;;;;;;4888000;29;20232;-68
2023/04/03 16:43:31;;;;;;;0.20;0.20;;;6.40;98.10;;;;;;4900036;29;20219;-68
2023/04/03 16:45:57;;;;;;;3.80;0.73;;;6.40;98.10;;;;;;4900776;29;20218;-68
2023/04/03 16:48:24;;;;;;;0.10;0.10;;;6.30;97.80;;;;;;4896791;29;20207;-68
2023/04/03 16:50:53;;;;;;;0.63;0.63;;;6.40;98.70;;;;;;4911188;29;20246;-68
2023/04/03 16:53:20;;;;;;;0.20;0.20;;;6.30;98.70;;;;;;4902000;29;20298;-69
2023/04/03 16:55:48;;;;;;;0.10;0.10;;;6.30;98.40;;;;;;4880879;29;20208;-68
2023/04/03 16:58:15;;;;;;;0.60;0.50;;;6.20;97.70;;;;;;4889737;29;20555;-68
2023/04/03 17:00:41;;;;;;;0.20;0.20;;;6.10;97.10;;;;;;4904115;29;20234;-70
2023/04/03 17:03:09;;;;;;;1.40;0.68;;;6.10;97.50;;;;;;4901104;29;20582;-68
2023/04/03 17:05:35;;;;;;;1.85;1.33;;;6.00;97.40;;;;;;4902567;29;20317;-69
2023/04/03 17:08:02;;;;;;;1.38;0.85;;;6.00;97.00;;;;;;4883951;29;20211;-68
2023/04/03 17:10:30;;;;;;;0.95;0.95;;;5.90;97.00;;;;;;4898631;29;20233;-68
2023/04/03 17:12:58;;;;;;;2.03;1.90;;;5.80;96.90;;;;;;4884369;29;20679;-68
2023/04/03 17:15:25;;;;;;;0.28;0.28;;;5.80;97.00;;;;;;4893431;29;20673;-68